sensor_id;sensor_type;location;lat;lon;timestamp;temperature;humidity
21487;DHT22;10905;50.822;4.336;2024-02-26T00:00:10;7.70;99.90
21487;DHT22;10905;50.822;4.336;2024-02-26T00:02:37;7.70;99.90
21487;DHT22;10905;50.822;4.336;2024-02-26T00:05:07;7.70;99.90
21487;DHT22;10905;50.822;4.336;2024-02-26T00:07:33;7.60;99.90
21487;DHT22;10905;50.822;4.336;2024-02-26T00:09:59;7.80;99.90
21487;DHT22;10905;50.822;4.336;2024-02-26T00:12:25;7.70;99.90
21487;DHT22;10905;50.822;4.336;2024-02-26T00:14:50;7.70;99.90
21487;DHT22;10905;50.822;4.336;2024-02-26T00:17:18;7.60;99.90
21487;DHT22;10905;50.822;4.336;2024-02-26T00:19:43;7.60;99.90
21487;DHT22;10905;50.822;4.336;2024-02-26T00:22:09;7.50;99.90
21487;DHT22;10905;50.822;4.336;2024-02-26T00:24:34;7.50;99.90
21487;DHT22;10905;50.822;4.336;2024-02-26T00:27:00;7.50;99.90
21487;DHT22;10905;50.822;4.336;2024-02-26T00:29:26;7.40;99.90
21487;DHT22;10905;50.822;4.336;2024-02-26T00:31:51;7.40;99.90
21487;DHT22;10905;50.822;4.336;2024-02-26T00:34:17;7.40;99.90
21487;DHT22;10905;50.822;4.336;2024-02-26T00:36:43;7.40;99.90
21487;DHT22;10905;50.822;4.336;2024-02-26T00:39:09;7.40;99.90
21487;DHT22;10905;50.822;4.336;2024-02-26T00:41:40;7.40;99.90
21487;DHT22;10905;50.822;4.336;2024-02-26T00:44:06;7.40;99.90
21487;DHT22;10905;50.822;4.336;2024-02-26T00:46:32;7.50;99.90
21487;DHT22;10905;50.822;4.336;2024-02-26T00:48:58;7.50;99.90
21487;DHT22;10905;50.822;4.336;2024-02-26T00:51:23;7.60;99.90
21487;DHT22;10905;50.822;4.336;2024-02-26T00:53:49;7.70;99.90
21487;DHT22;10905;50.822;4.336;2024-02-26T00:56:15;7.60;99.90
21487;DHT22;10905;50.822;4.336;2024-02-26T00:58:40;7.50;99.90
21487;DHT22;10905;50.822;4.336;2024-02-26T01:01:06;7.50;99.90
21487;DHT22;10905;50.822;4.336;2024-02-26T01:03:31;7.50;99.90
21487;DHT22;10905;50.822;4.336;2024-02-26T01:05:57;7.50;99.90
21487;DHT22;10905;50.822;4.336;2024-02-26T01:08:22;7.50;99.90
21487;DHT22;10905;50.822;4.336;2024-02-26T01:10:48;7.40;99.90
21487;DHT22;10905;50.822;4.336;2024-02-26T01:13:14;7.30;99.90
21487;DHT22;10905;50.822;4.336;2024-02-26T01:15:40;7.30;99.90
21487;DHT22;10905;50.822;4.336;2024-02-26T01:18:05;7.30;99.90
21487;DHT22;10905;50.822;4.336;2024-02-26T01:20:31;7.30;99.90
21487;DHT22;10905;50.822;4.336;2024-02-26T01:22:56;7.20;99.90
21487;DHT22;10905;50.822;4.336;2024-02-26T01:25:22;7.20;99.90
21487;DHT22;10905;50.822;4.336;2024-02-26T01:27:47;7.20;99.90
21487;DHT22;10905;50.822;4.336;2024-02-26T01:30:13;7.20;99.90
21487;DHT22;10905;50.822;4.336;2024-02-26T01:32:41;7.10;99.90
21487;DHT22;10905;50.822;4.336;2024-02-26T01:35:07;7.10;99.90
21487;DHT22;10905;50.822;4.336;2024-02-26T01:37:36;7.10;99.90
21487;DHT22;10905;50.822;4.336;2024-02-26T01:40:01;7.00;99.90
21487;DHT22;10905;50.822;4.336;2024-02-26T01:42:29;7.00;99.90
21487;DHT22;10905;50.822;4.336;2024-02-26T01:44:56;7.10;99.90
21487;DHT22;10905;50.822;4.336;2024-02-26T01:47:22;7.10;99.90
21487;DHT22;10905;50.822;4.336;2024-02-26T01:49:48;7.10;99.90
21487;DHT22;10905;50.822;4.336;2024-02-26T01:52:15;7.00;99.90
21487;DHT22;10905;50.822;4.336;2024-02-26T01:54:42;7.00;99.90
21487;DHT22;10905;50.822;4.336;2024-02-26T01:57:11;7.00;99.90
21487;DHT22;10905;50.822;4.336;2024-02-26T01:59:39;7.10;99.90
21487;DHT22;10905;50.822;4.336;2024-02-26T02:02:07;7.10;99.90
21487;DHT22;10905;50.822;4.336;2024-02-26T02:04:34;7.00;99.90
21487;DHT22;10905;50.822;4.336;2024-02-26T02:07:00;7.10;99.90
21487;DHT22;10905;50.822;4.336;2024-02-26T02:09:27;7.00;99.90
21487;DHT22;10905;50.822;4.336;2024-02-26T02:11:54;7.00;99.90
21487;DHT22;10905;50.822;4.336;2024-02-26T02:14:19;6.90;99.90
21487;DHT22;10905;50.822;4.336;2024-02-26T02:16:47;7.00;99.90
21487;DHT22;10905;50.822;4.336;2024-02-26T02:19:13;7.00;99.90
21487;DHT22;10905;50.822;4.336;2024-02-26T02:21:39;7.00;99.90
21487;DHT22;10905;50.822;4.336;2024-02-26T02:24:05;7.10;99.90
21487;DHT22;10905;50.822;4.336;2024-02-26T02:26:30;7.10;99.90
21487;DHT22;10905;50.822;4.336;2024-02-26T02:28:56;6.90;99.90
21487;DHT22;10905;50.822;4.336;2024-02-26T02:31:22;7.00;99.90
21487;DHT22;10905;50.822;4.336;2024-02-26T02:33:48;6.90;99.90
21487;DHT22;10905;50.822;4.336;2024-02-26T02:36:14;7.00;99.90
21487;DHT22;10905;50.822;4.336;2024-02-26T02:38:49;7.00;99.90
21487;DHT22;10905;50.822;4.336;2024-02-26T02:41:17;7.00;99.90
21487;DHT22;10905;50.822;4.336;2024-02-26T02:43:43;6.90;99.90
21487;DHT22;10905;50.822;4.336;2024-02-26T02:46:09;6.90;99.90
21487;DHT22;10905;50.822;4.336;2024-02-26T02:48:37;6.90;99.90
21487;DHT22;10905;50.822;4.336;2024-02-26T02:51:03;6.90;99.90
21487;DHT22;10905;50.822;4.336;2024-02-26T02:53:28;6.90;99.90
21487;DHT22;10905;50.822;4.336;2024-02-26T02:55:54;7.00;99.90
21487;DHT22;10905;50.822;4.336;2024-02-26T02:58:19;7.10;99.90
21487;DHT22;10905;50.822;4.336;2024-02-26T03:00:45;7.10;99.90
21487;DHT22;10905;50.822;4.336;2024-02-26T03:03:11;7.20;99.90
21487;DHT22;10905;50.822;4.336;2024-02-26T03:05:36;7.10;99.90
21487;DHT22;10905;50.822;4.336;2024-02-26T03:08:02;7.10;99.90
21487;DHT22;10905;50.822;4.336;2024-02-26T03:10:27;7.10;99.90
21487;DHT22;10905;50.822;4.336;2024-02-26T03:12:54;7.00;99.90
21487;DHT22;10905;50.822;4.336;2024-02-26T03:15:19;7.00;99.90
21487;DHT22;10905;50.822;4.336;2024-02-26T03:17:45;6.90;99.90
21487;DHT22;10905;50.822;4.336;2024-02-26T03:20:11;6.90;99.90
21487;DHT22;10905;50.822;4.336;2024-02-26T03:22:39;6.90;99.90
21487;DHT22;10905;50.822;4.336;2024-02-26T03:25:05;6.90;99.90
21487;DHT22;10905;50.822;4.336;2024-02-26T03:27:31;6.90;99.90
21487;DHT22;10905;50.822;4.336;2024-02-26T03:29:57;6.90;99.90
21487;DHT22;10905;50.822;4.336;2024-02-26T03:32:22;6.90;99.90
21487;DHT22;10905;50.822;4.336;2024-02-26T03:34:48;6.90;99.90
21487;DHT22;10905;50.822;4.336;2024-02-26T03:37:14;6.80;99.90
21487;DHT22;10905;50.822;4.336;2024-02-26T03:39:40;6.80;99.90
21487;DHT22;10905;50.822;4.336;2024-02-26T03:42:06;6.80;99.90
21487;DHT22;10905;50.822;4.336;2024-02-26T03:44:31;6.80;99.90
21487;DHT22;10905;50.822;4.336;2024-02-26T03:46:57;6.80;99.90
21487;DHT22;10905;50.822;4.336;2024-02-26T03:49:23;6.80;99.90
21487;DHT22;10905;50.822;4.336;2024-02-26T03:51:48;6.80;99.90
21487;DHT22;10905;50.822;4.336;2024-02-26T03:54:14;6.90;99.90
21487;DHT22;10905;50.822;4.336;2024-02-26T03:56:40;6.90;99.90
21487;DHT22;10905;50.822;4.336;2024-02-26T03:59:05;6.90;99.90
21487;DHT22;10905;50.822;4.336;2024-02-26T04:01:31;6.80;99.90
21487;DHT22;10905;50.822;4.336;2024-02-26T04:03:57;6.80;99.90
21487;DHT22;10905;50.822;4.336;2024-02-26T04:06:22;6.80;99.90
21487;DHT22;10905;50.822;4.336;2024-02-26T04:08:48;6.90;99.90
21487;DHT22;10905;50.822;4.336;2024-02-26T04:11:14;6.90;99.90
21487;DHT22;10905;50.822;4.336;2024-02-26T04:13:43;6.90;99.90
21487;DHT22;10905;50.822;4.336;2024-02-26T04:16:11;6.80;99.90
21487;DHT22;10905;50.822;4.336;2024-02-26T04:18:37;6.80;99.90
21487;DHT22;10905;50.822;4.336;2024-02-26T04:21:06;6.70;99.90
21487;DHT22;10905;50.822;4.336;2024-02-26T04:23:32;6.70;99.90
21487;DHT22;10905;50.822;4.336;2024-02-26T04:25:58;6.80;99.90
21487;DHT22;10905;50.822;4.336;2024-02-26T04:28:23;6.70;99.90
21487;DHT22;10905;50.822;4.336;2024-02-26T04:30:54;6.70;99.90
21487;DHT22;10905;50.822;4.336;2024-02-26T04:33:20;6.60;99.90
21487;DHT22;10905;50.822;4.336;2024-02-26T04:35:46;6.50;99.90
21487;DHT22;10905;50.822;4.336;2024-02-26T04:38:11;6.50;99.90
21487;DHT22;10905;50.822;4.336;2024-02-26T04:40:37;6.50;99.90
21487;DHT22;10905;50.822;4.336;2024-02-26T04:43:02;6.60;99.90
21487;DHT22;10905;50.822;4.336;2024-02-26T04:45:28;6.70;99.90
21487;DHT22;10905;50.822;4.336;2024-02-26T04:47:54;6.60;99.90
21487;DHT22;10905;50.822;4.336;2024-02-26T04:50:19;6.70;99.90
21487;DHT22;10905;50.822;4.336;2024-02-26T04:52:45;6.60;99.90
21487;DHT22;10905;50.822;4.336;2024-02-26T04:55:10;6.50;99.90
21487;DHT22;10905;50.822;4.336;2024-02-26T04:57:36;6.60;99.90
21487;DHT22;10905;50.822;4.336;2024-02-26T05:00:02;6.60;99.90
21487;DHT22;10905;50.822;4.336;2024-02-26T05:02:30;6.60;99.90
21487;DHT22;10905;50.822;4.336;2024-02-26T05:04:57;6.60;99.90
21487;DHT22;10905;50.822;4.336;2024-02-26T05:07:23;6.50;99.90
21487;DHT22;10905;50.822;4.336;2024-02-26T05:09:48;6.50;99.90
21487;DHT22;10905;50.822;4.336;2024-02-26T05:12:15;6.50;99.90
21487;DHT22;10905;50.822;4.336;2024-02-26T05:14:41;6.50;99.90
21487;DHT22;10905;50.822;4.336;2024-02-26T05:17:06;6.50;99.90
21487;DHT22;10905;50.822;4.336;2024-02-26T05:19:32;6.50;99.90
21487;DHT22;10905;50.822;4.336;2024-02-26T05:21:57;6.50;99.90
21487;DHT22;10905;50.822;4.336;2024-02-26T05:24:23;6.50;99.90
21487;DHT22;10905;50.822;4.336;2024-02-26T05:26:49;6.60;99.90
21487;DHT22;10905;50.822;4.336;2024-02-26T05:29:14;6.70;99.90
21487;DHT22;10905;50.822;4.336;2024-02-26T05:31:42;6.70;99.90
21487;DHT22;10905;50.822;4.336;2024-02-26T05:34:08;6.70;99.90
21487;DHT22;10905;50.822;4.336;2024-02-26T05:36:34;6.60;99.90
21487;DHT22;10905;50.822;4.336;2024-02-26T05:39:00;6.60;99.90
21487;DHT22;10905;50.822;4.336;2024-02-26T05:41:26;6.50;99.90
21487;DHT22;10905;50.822;4.336;2024-02-26T05:43:53;6.50;99.90
21487;DHT22;10905;50.822;4.336;2024-02-26T05:46:22;6.40;99.90
21487;DHT22;10905;50.822;4.336;2024-02-26T05:48:49;6.40;99.90
21487;DHT22;10905;50.822;4.336;2024-02-26T05:51:15;6.40;99.90
21487;DHT22;10905;50.822;4.336;2024-02-26T05:53:41;6.30;99.90
21487;DHT22;10905;50.822;4.336;2024-02-26T05:56:07;6.40;99.90
21487;DHT22;10905;50.822;4.336;2024-02-26T05:58:32;6.40;99.90
21487;DHT22;10905;50.822;4.336;2024-02-26T06:00:58;6.50;99.90
21487;DHT22;10905;50.822;4.336;2024-02-26T06:03:25;6.40;99.90
21487;DHT22;10905;50.822;4.336;2024-02-26T06:05:51;6.40;99.90
21487;DHT22;10905;50.822;4.336;2024-02-26T06:08:16;6.40;99.90
21487;DHT22;10905;50.822;4.336;2024-02-26T06:10:42;6.40;99.90
21487;DHT22;10905;50.822;4.336;2024-02-26T06:13:07;6.50;99.90
21487;DHT22;10905;50.822;4.336;2024-02-26T06:15:33;6.40;99.90
21487;DHT22;10905;50.822;4.336;2024-02-26T06:17:59;6.40;99.90
21487;DHT22;10905;50.822;4.336;2024-02-26T06:20:24;6.40;99.90
21487;DHT22;10905;50.822;4.336;2024-02-26T06:22:50;6.40;99.90
21487;DHT22;10905;50.822;4.336;2024-02-26T06:25:16;6.40;99.90
21487;DHT22;10905;50.822;4.336;2024-02-26T06:27:42;6.40;99.90
21487;DHT22;10905;50.822;4.336;2024-02-26T06:30:08;6.40;99.90
21487;DHT22;10905;50.822;4.336;2024-02-26T06:32:36;6.40;99.90
21487;DHT22;10905;50.822;4.336;2024-02-26T06:35:02;6.40;99.90
21487;DHT22;10905;50.822;4.336;2024-02-26T06:37:32;6.40;99.90
21487;DHT22;10905;50.822;4.336;2024-02-26T06:39:59;6.40;99.90
21487;DHT22;10905;50.822;4.336;2024-02-26T06:42:25;6.30;99.90
21487;DHT22;10905;50.822;4.336;2024-02-26T06:44:50;6.40;99.90
21487;DHT22;10905;50.822;4.336;2024-02-26T06:47:16;6.30;99.90
21487;DHT22;10905;50.822;4.336;2024-02-26T06:49:41;6.30;99.90
21487;DHT22;10905;50.822;4.336;2024-02-26T06:52:07;6.30;99.90
21487;DHT22;10905;50.822;4.336;2024-02-26T06:54:33;6.30;99.90
21487;DHT22;10905;50.822;4.336;2024-02-26T06:56:58;6.30;99.90
21487;DHT22;10905;50.822;4.336;2024-02-26T06:59:24;6.30;99.90
21487;DHT22;10905;50.822;4.336;2024-02-26T07:01:50;6.20;99.90
21487;DHT22;10905;50.822;4.336;2024-02-26T07:04:15;6.20;99.90
21487;DHT22;10905;50.822;4.336;2024-02-26T07:06:41;6.20;99.90
21487;DHT22;10905;50.822;4.336;2024-02-26T07:09:08;6.20;99.90
21487;DHT22;10905;50.822;4.336;2024-02-26T07:11:34;6.40;99.90
21487;DHT22;10905;50.822;4.336;2024-02-26T07:13:59;6.40;99.90
21487;DHT22;10905;50.822;4.336;2024-02-26T07:16:26;6.30;99.90
21487;DHT22;10905;50.822;4.336;2024-02-26T07:18:52;6.30;99.90
21487;DHT22;10905;50.822;4.336;2024-02-26T07:21:18;6.30;99.90
21487;DHT22;10905;50.822;4.336;2024-02-26T07:23:43;6.30;99.90
21487;DHT22;10905;50.822;4.336;2024-02-26T07:26:09;6.30;99.90
21487;DHT22;10905;50.822;4.336;2024-02-26T07:28:37;6.30;99.90
21487;DHT22;10905;50.822;4.336;2024-02-26T07:31:03;6.40;99.90
21487;DHT22;10905;50.822;4.336;2024-02-26T07:33:29;6.40;99.90
21487;DHT22;10905;50.822;4.336;2024-02-26T07:35:54;6.30;99.90
21487;DHT22;10905;50.822;4.336;2024-02-26T07:38:20;6.30;99.90
21487;DHT22;10905;50.822;4.336;2024-02-26T07:40:45;6.30;99.90
21487;DHT22;10905;50.822;4.336;2024-02-26T07:43:11;6.30;99.90
21487;DHT22;10905;50.822;4.336;2024-02-26T07:45:37;6.40;99.90
21487;DHT22;10905;50.822;4.336;2024-02-26T07:48:03;6.30;99.90
21487;DHT22;10905;50.822;4.336;2024-02-26T07:50:28;6.30;99.90
21487;DHT22;10905;50.822;4.336;2024-02-26T07:52:54;6.40;99.90
21487;DHT22;10905;50.822;4.336;2024-02-26T07:55:20;6.30;99.90
21487;DHT22;10905;50.822;4.336;2024-02-26T07:57:45;6.40;99.90
21487;DHT22;10905;50.822;4.336;2024-02-26T08:00:11;6.50;99.90
21487;DHT22;10905;50.822;4.336;2024-02-26T08:02:40;6.40;99.90
21487;DHT22;10905;50.822;4.336;2024-02-26T08:05:06;6.40;99.90
21487;DHT22;10905;50.822;4.336;2024-02-26T08:07:31;6.40;99.90
21487;DHT22;10905;50.822;4.336;2024-02-26T08:09:57;6.30;99.90
21487;DHT22;10905;50.822;4.336;2024-02-26T08:12:23;6.40;99.90
21487;DHT22;10905;50.822;4.336;2024-02-26T08:14:48;6.40;99.90
21487;DHT22;10905;50.822;4.336;2024-02-26T08:17:14;6.40;99.90
21487;DHT22;10905;50.822;4.336;2024-02-26T08:19:39;6.40;99.90
21487;DHT22;10905;50.822;4.336;2024-02-26T08:22:05;6.20;99.90
21487;DHT22;10905;50.822;4.336;2024-02-26T08:24:31;6.30;99.90
21487;DHT22;10905;50.822;4.336;2024-02-26T08:26:56;6.20;99.90
21487;DHT22;10905;50.822;4.336;2024-02-26T08:29:22;6.30;99.90
21487;DHT22;10905;50.822;4.336;2024-02-26T08:31:47;6.30;99.90
21487;DHT22;10905;50.822;4.336;2024-02-26T08:34:14;6.30;99.90
21487;DHT22;10905;50.822;4.336;2024-02-26T08:36:39;6.40;99.90
21487;DHT22;10905;50.822;4.336;2024-02-26T08:39:05;6.30;99.90
21487;DHT22;10905;50.822;4.336;2024-02-26T08:41:31;6.40;99.90
21487;DHT22;10905;50.822;4.336;2024-02-26T08:43:56;6.30;99.90
21487;DHT22;10905;50.822;4.336;2024-02-26T08:46:23;6.30;99.90
21487;DHT22;10905;50.822;4.336;2024-02-26T08:48:49;6.40;99.90
21487;DHT22;10905;50.822;4.336;2024-02-26T08:51:14;6.30;99.90
21487;DHT22;10905;50.822;4.336;2024-02-26T08:53:40;6.30;99.90
21487;DHT22;10905;50.822;4.336;2024-02-26T08:56:06;6.30;99.90
21487;DHT22;10905;50.822;4.336;2024-02-26T08:58:31;6.30;99.90
21487;DHT22;10905;50.822;4.336;2024-02-26T09:00:57;6.30;99.90
21487;DHT22;10905;50.822;4.336;2024-02-26T09:03:23;6.30;99.90
21487;DHT22;10905;50.822;4.336;2024-02-26T09:05:49;6.40;99.90
21487;DHT22;10905;50.822;4.336;2024-02-26T09:08:14;6.30;99.90
21487;DHT22;10905;50.822;4.336;2024-02-26T09:10:40;6.20;99.90
21487;DHT22;10905;50.822;4.336;2024-02-26T09:13:06;6.10;99.90
21487;DHT22;10905;50.822;4.336;2024-02-26T09:15:31;6.30;99.90
21487;DHT22;10905;50.822;4.336;2024-02-26T09:17:57;6.40;99.90
21487;DHT22;10905;50.822;4.336;2024-02-26T09:20:23;6.20;99.90
21487;DHT22;10905;50.822;4.336;2024-02-26T09:22:49;6.30;99.90
21487;DHT22;10905;50.822;4.336;2024-02-26T09:25:16;6.30;99.90
21487;DHT22;10905;50.822;4.336;2024-02-26T09:27:43;6.30;99.90
21487;DHT22;10905;50.822;4.336;2024-02-26T09:30:11;6.30;99.90
21487;DHT22;10905;50.822;4.336;2024-02-26T09:32:38;6.30;99.90
21487;DHT22;10905;50.822;4.336;2024-02-26T09:35:05;6.30;99.90
21487;DHT22;10905;50.822;4.336;2024-02-26T09:37:30;6.30;99.90
21487;DHT22;10905;50.822;4.336;2024-02-26T09:39:56;6.30;99.90
21487;DHT22;10905;50.822;4.336;2024-02-26T09:42:27;6.30;99.90
21487;DHT22;10905;50.822;4.336;2024-02-26T09:44:59;6.30;99.90
21487;DHT22;10905;50.822;4.336;2024-02-26T09:47:28;6.30;99.90
21487;DHT22;10905;50.822;4.336;2024-02-26T09:49:57;6.30;99.90
21487;DHT22;10905;50.822;4.336;2024-02-26T09:52:24;6.30;99.90
21487;DHT22;10905;50.822;4.336;2024-02-26T09:54:51;6.30;99.90
21487;DHT22;10905;50.822;4.336;2024-02-26T09:57:16;6.30;99.90
21487;DHT22;10905;50.822;4.336;2024-02-26T09:59:43;6.30;99.90
21487;DHT22;10905;50.822;4.336;2024-02-26T10:02:12;6.30;99.90
21487;DHT22;10905;50.822;4.336;2024-02-26T10:04:40;6.30;99.90
21487;DHT22;10905;50.822;4.336;2024-02-26T10:07:10;6.30;99.90
21487;DHT22;10905;50.822;4.336;2024-02-26T10:09:36;6.20;99.90
21487;DHT22;10905;50.822;4.336;2024-02-26T10:12:02;6.20;99.90
21487;DHT22;10905;50.822;4.336;2024-02-26T10:14:28;6.20;99.90
21487;DHT22;10905;50.822;4.336;2024-02-26T10:16:54;6.20;99.90
21487;DHT22;10905;50.822;4.336;2024-02-26T10:19:26;6.20;99.90
21487;DHT22;10905;50.822;4.336;2024-02-26T10:21:59;6.20;99.90
21487;DHT22;10905;50.822;4.336;2024-02-26T10:24:26;6.10;99.90
21487;DHT22;10905;50.822;4.336;2024-02-26T10:26:54;6.10;99.90
21487;DHT22;10905;50.822;4.336;2024-02-26T10:29:20;6.30;99.90
21487;DHT22;10905;50.822;4.336;2024-02-26T10:31:46;6.20;99.90
21487;DHT22;10905;50.822;4.336;2024-02-26T10:34:12;6.10;99.90
21487;DHT22;10905;50.822;4.336;2024-02-26T10:36:38;6.10;99.90
21487;DHT22;10905;50.822;4.336;2024-02-26T10:39:06;6.00;99.90
21487;DHT22;10905;50.822;4.336;2024-02-26T10:41:35;6.10;99.90
21487;DHT22;10905;50.822;4.336;2024-02-26T10:44:01;6.10;99.90
21487;DHT22;10905;50.822;4.336;2024-02-26T10:46:27;6.10;99.90
21487;DHT22;10905;50.822;4.336;2024-02-26T10:48:53;6.10;99.90
21487;DHT22;10905;50.822;4.336;2024-02-26T10:51:27;6.10;99.90
21487;DHT22;10905;50.822;4.336;2024-02-26T10:53:56;6.10;99.90
21487;DHT22;10905;50.822;4.336;2024-02-26T10:56:28;6.10;99.90
21487;DHT22;10905;50.822;4.336;2024-02-26T10:58:58;6.10;99.90
21487;DHT22;10905;50.822;4.336;2024-02-26T11:01:25;6.10;99.90
21487;DHT22;10905;50.822;4.336;2024-02-26T11:03:52;6.10;99.90
21487;DHT22;10905;50.822;4.336;2024-02-26T11:06:19;6.10;99.90
21487;DHT22;10905;50.822;4.336;2024-02-26T11:08:53;6.10;99.90
21487;DHT22;10905;50.822;4.336;2024-02-26T11:11:20;6.10;99.90
21487;DHT22;10905;50.822;4.336;2024-02-26T11:13:47;6.10;99.90
21487;DHT22;10905;50.822;4.336;2024-02-26T11:16:21;6.00;99.90
21487;DHT22;10905;50.822;4.336;2024-02-26T11:18:47;6.00;99.90
21487;DHT22;10905;50.822;4.336;2024-02-26T11:21:19;6.00;99.90
21487;DHT22;10905;50.822;4.336;2024-02-26T11:23:48;6.00;99.90
21487;DHT22;10905;50.822;4.336;2024-02-26T11:26:15;5.90;99.90
21487;DHT22;10905;50.822;4.336;2024-02-26T11:28:43;5.90;99.90
21487;DHT22;10905;50.822;4.336;2024-02-26T11:31:10;5.90;99.90
21487;DHT22;10905;50.822;4.336;2024-02-26T11:33:36;5.90;99.90
21487;DHT22;10905;50.822;4.336;2024-02-26T11:36:07;5.80;99.90
21487;DHT22;10905;50.822;4.336;2024-02-26T11:38:33;5.80;99.90
21487;DHT22;10905;50.822;4.336;2024-02-26T11:40:59;6.00;99.90
21487;DHT22;10905;50.822;4.336;2024-02-26T11:43:59;6.00;99.90
21487;DHT22;10905;50.822;4.336;2024-02-26T11:46:26;5.80;99.90
21487;DHT22;10905;50.822;4.336;2024-02-26T11:48:56;5.80;99.90
21487;DHT22;10905;50.822;4.336;2024-02-26T11:51:31;5.70;99.90
21487;DHT22;10905;50.822;4.336;2024-02-26T11:53:57;5.70;99.90
21487;DHT22;10905;50.822;4.336;2024-02-26T11:56:24;5.80;99.90
21487;DHT22;10905;50.822;4.336;2024-02-26T11:59:08;5.80;99.90
21487;DHT22;10905;50.822;4.336;2024-02-26T12:06:46;5.80;99.90
21487;DHT22;10905;50.822;4.336;2024-02-26T12:09:12;5.80;99.90
21487;DHT22;10905;50.822;4.336;2024-02-26T12:11:42;5.80;99.90
21487;DHT22;10905;50.822;4.336;2024-02-26T12:14:08;5.80;99.90
21487;DHT22;10905;50.822;4.336;2024-02-26T12:16:39;5.80;99.90
21487;DHT22;10905;50.822;4.336;2024-02-26T12:19:06;5.90;99.90
21487;DHT22;10905;50.822;4.336;2024-02-26T12:21:36;5.80;99.90
21487;DHT22;10905;50.822;4.336;2024-02-26T12:24:14;5.90;99.90
21487;DHT22;10905;50.822;4.336;2024-02-26T12:26:41;5.90;99.90
21487;DHT22;10905;50.822;4.336;2024-02-26T12:29:08;5.90;99.90
21487;DHT22;10905;50.822;4.336;2024-02-26T12:31:34;6.00;99.90
21487;DHT22;10905;50.822;4.336;2024-02-26T12:34:02;6.00;99.90
21487;DHT22;10905;50.822;4.336;2024-02-26T12:36:28;6.00;99.90
21487;DHT22;10905;50.822;4.336;2024-02-26T12:38:54;6.00;99.90
21487;DHT22;10905;50.822;4.336;2024-02-26T12:41:20;6.00;99.90
21487;DHT22;10905;50.822;4.336;2024-02-26T12:43:46;6.10;99.90
21487;DHT22;10905;50.822;4.336;2024-02-26T12:46:11;6.00;99.90
21487;DHT22;10905;50.822;4.336;2024-02-26T12:48:38;6.00;99.90
21487;DHT22;10905;50.822;4.336;2024-02-26T12:51:05;6.00;99.90
21487;DHT22;10905;50.822;4.336;2024-02-26T12:53:31;6.00;99.90
21487;DHT22;10905;50.822;4.336;2024-02-26T12:55:57;6.00;99.90
21487;DHT22;10905;50.822;4.336;2024-02-26T12:58:23;6.00;99.90
21487;DHT22;10905;50.822;4.336;2024-02-26T13:00:54;6.10;99.90
21487;DHT22;10905;50.822;4.336;2024-02-26T13:03:21;6.00;99.90
21487;DHT22;10905;50.822;4.336;2024-02-26T13:05:48;6.00;99.90
21487;DHT22;10905;50.822;4.336;2024-02-26T13:08:20;6.00;99.90
21487;DHT22;10905;50.822;4.336;2024-02-26T13:10:47;6.10;99.90
21487;DHT22;10905;50.822;4.336;2024-02-26T13:13:15;6.00;99.90
21487;DHT22;10905;50.822;4.336;2024-02-26T13:15:46;5.80;99.90
21487;DHT22;10905;50.822;4.336;2024-02-26T13:18:13;5.80;99.90
21487;DHT22;10905;50.822;4.336;2024-02-26T13:20:40;5.80;99.90
21487;DHT22;10905;50.822;4.336;2024-02-26T13:23:08;5.80;99.90
21487;DHT22;10905;50.822;4.336;2024-02-26T13:25:36;5.80;99.90
21487;DHT22;10905;50.822;4.336;2024-02-26T13:28:24;5.80;99.90
21487;DHT22;10905;50.822;4.336;2024-02-26T13:30:54;5.90;99.90
21487;DHT22;10905;50.822;4.336;2024-02-26T13:33:28;5.90;99.90
21487;DHT22;10905;50.822;4.336;2024-02-26T13:35:58;5.80;99.90
21487;DHT22;10905;50.822;4.336;2024-02-26T13:38:24;5.70;99.90
21487;DHT22;10905;50.822;4.336;2024-02-26T13:40:50;5.70;99.90
21487;DHT22;10905;50.822;4.336;2024-02-26T13:43:16;5.60;99.90
21487;DHT22;10905;50.822;4.336;2024-02-26T13:45:42;5.60;99.90
21487;DHT22;10905;50.822;4.336;2024-02-26T13:48:09;5.70;99.90
21487;DHT22;10905;50.822;4.336;2024-02-26T13:50:40;5.70;99.90
21487;DHT22;10905;50.822;4.336;2024-02-26T13:53:06;5.60;99.90
21487;DHT22;10905;50.822;4.336;2024-02-26T13:55:32;5.60;99.90
21487;DHT22;10905;50.822;4.336;2024-02-26T13:57:58;5.60;99.90
21487;DHT22;10905;50.822;4.336;2024-02-26T14:00:27;5.70;99.90
21487;DHT22;10905;50.822;4.336;2024-02-26T14:02:52;5.70;99.90
21487;DHT22;10905;50.822;4.336;2024-02-26T14:05:18;5.70;99.90
21487;DHT22;10905;50.822;4.336;2024-02-26T14:07:43;5.60;99.90
21487;DHT22;10905;50.822;4.336;2024-02-26T14:10:12;5.60;99.90
21487;DHT22;10905;50.822;4.336;2024-02-26T14:12:38;5.60;99.90
21487;DHT22;10905;50.822;4.336;2024-02-26T14:15:06;5.70;99.90
21487;DHT22;10905;50.822;4.336;2024-02-26T14:17:32;5.70;99.90
21487;DHT22;10905;50.822;4.336;2024-02-26T14:19:58;5.80;99.90
21487;DHT22;10905;50.822;4.336;2024-02-26T14:22:24;5.70;99.90
21487;DHT22;10905;50.822;4.336;2024-02-26T14:24:51;5.70;99.90
21487;DHT22;10905;50.822;4.336;2024-02-26T14:27:17;5.80;99.90
21487;DHT22;10905;50.822;4.336;2024-02-26T14:29:43;5.80;99.90
21487;DHT22;10905;50.822;4.336;2024-02-26T14:32:12;5.80;99.90
21487;DHT22;10905;50.822;4.336;2024-02-26T14:34:38;5.80;99.90
21487;DHT22;10905;50.822;4.336;2024-02-26T14:37:04;5.90;99.90
21487;DHT22;10905;50.822;4.336;2024-02-26T14:39:31;5.90;99.90
21487;DHT22;10905;50.822;4.336;2024-02-26T14:41:57;5.90;99.90
21487;DHT22;10905;50.822;4.336;2024-02-26T14:44:23;5.90;99.90
21487;DHT22;10905;50.822;4.336;2024-02-26T14:46:49;5.80;99.90
21487;DHT22;10905;50.822;4.336;2024-02-26T14:49:15;5.90;99.90
21487;DHT22;10905;50.822;4.336;2024-02-26T14:51:41;6.00;99.90
21487;DHT22;10905;50.822;4.336;2024-02-26T14:54:06;6.00;99.90
21487;DHT22;10905;50.822;4.336;2024-02-26T14:56:32;6.10;99.90
21487;DHT22;10905;50.822;4.336;2024-02-26T14:58:58;6.00;99.90
21487;DHT22;10905;50.822;4.336;2024-02-26T15:01:24;6.10;99.90
21487;DHT22;10905;50.822;4.336;2024-02-26T15:03:50;6.00;99.90
21487;DHT22;10905;50.822;4.336;2024-02-26T15:06:15;6.10;99.90
21487;DHT22;10905;50.822;4.336;2024-02-26T15:08:41;6.00;99.90
21487;DHT22;10905;50.822;4.336;2024-02-26T15:11:07;6.00;99.90
21487;DHT22;10905;50.822;4.336;2024-02-26T15:13:33;6.00;99.90
21487;DHT22;10905;50.822;4.336;2024-02-26T15:15:59;5.90;99.90
21487;DHT22;10905;50.822;4.336;2024-02-26T15:18:25;6.00;99.90
21487;DHT22;10905;50.822;4.336;2024-02-26T15:20:51;6.00;99.90
21487;DHT22;10905;50.822;4.336;2024-02-26T15:23:17;6.00;99.90
21487;DHT22;10905;50.822;4.336;2024-02-26T15:25:43;6.00;99.90
21487;DHT22;10905;50.822;4.336;2024-02-26T15:28:08;5.90;99.90
21487;DHT22;10905;50.822;4.336;2024-02-26T15:30:36;5.90;99.90
21487;DHT22;10905;50.822;4.336;2024-02-26T15:33:02;5.90;99.90
21487;DHT22;10905;50.822;4.336;2024-02-26T15:35:28;5.90;99.90
21487;DHT22;10905;50.822;4.336;2024-02-26T15:37:54;5.90;99.90
21487;DHT22;10905;50.822;4.336;2024-02-26T15:40:19;5.90;99.90
21487;DHT22;10905;50.822;4.336;2024-02-26T15:42:48;5.80;99.90
21487;DHT22;10905;50.822;4.336;2024-02-26T15:45:15;5.90;99.90